createdAt,value
2023-04-13T00:03:12.162Z,4.84
2023-04-13T00:13:15.301Z,4.88
2023-04-13T00:23:17.968Z,4.63
2023-04-13T00:33:20.324Z,4.52
2023-04-13T00:43:22.405Z,4.50
2023-04-13T00:53:24.548Z,4.93
2023-04-13T01:03:27.195Z,4.30
2023-04-13T01:13:35.133Z,4.45
2023-04-13T01:23:57.288Z,4.73
2023-04-13T01:34:01.350Z,4.06
2023-04-13T01:44:03.889Z,4.09
2023-04-13T01:54:17.626Z,4.23
2023-04-13T02:04:22.576Z,4.47
2023-04-13T02:14:27.124Z,4.61
2023-04-13T02:24:30.191Z,4.34
2023-04-13T02:34:33.433Z,5.03
2023-04-13T02:44:36.264Z,4.49
2023-04-13T02:54:38.507Z,4.53
2023-04-13T03:04:40.903Z,4.70
2023-04-13T03:14:43.423Z,4.26
2023-04-13T03:24:46.692Z,4.39
2023-04-13T03:34:55.479Z,4.32
2023-04-13T03:44:57.764Z,4.35
2023-04-13T03:55:00.504Z,4.53
2023-04-13T04:05:06.875Z,4.03
2023-04-13T04:15:10.358Z,4.23
2023-04-13T04:25:22.271Z,4.68
2023-04-13T04:35:33.027Z,5.02
2023-04-13T04:45:36.331Z,4.77
2023-04-13T04:55:39.786Z,4.58
2023-04-13T05:05:45.967Z,4.95
2023-04-13T05:15:54.402Z,4.59
2023-04-13T05:25:56.701Z,5.31
2023-04-13T05:36:01.336Z,4.84
2023-04-13T05:46:03.552Z,5.11
2023-04-13T05:56:07.887Z,4.51
2023-04-13T06:06:12.973Z,4.94
2023-04-13T06:16:15.526Z,5.06
2023-04-13T06:26:19.395Z,5.19
2023-04-13T06:36:27.233Z,5.17
2023-04-13T06:46:31.410Z,5.33
2023-04-13T06:56:38.887Z,5.64
2023-04-13T07:06:41.486Z,5.84
2023-04-13T07:16:43.730Z,5.44
2023-04-13T07:26:46.145Z,5.56
2023-04-13T07:36:48.522Z,6.22
2023-04-13T07:46:57.200Z,6.49
2023-04-13T07:57:02.882Z,6.61
2023-04-13T08:07:07.282Z,6.54
2023-04-13T08:17:10.182Z,6.48
2023-04-13T08:27:13.691Z,6.40
2023-04-13T08:37:16.256Z,6.20
2023-04-13T08:47:21.453Z,6.51
2023-04-13T08:57:24.261Z,5.86
2023-04-13T09:07:30.752Z,5.97
2023-04-13T09:17:37.375Z,6.17
2023-04-13T09:27:40.358Z,6.31
2023-04-13T09:37:44.430Z,7.26
2023-04-13T09:47:47.689Z,6.29
2023-04-13T09:57:49.782Z,6.72
2023-04-13T10:07:51.900Z,7.56
2023-04-13T10:18:12.820Z,7.33
2023-04-13T10:28:15.022Z,8.09
2023-04-13T10:38:17.132Z,7.69
2023-04-13T10:48:21.617Z,7.80
2023-04-13T10:58:23.880Z,7.63
2023-04-13T11:08:27.793Z,8.09
2023-04-13T11:18:30.012Z,7.80
2023-04-13T11:28:43.435Z,8.20
2023-04-13T11:38:48.034Z,8.59
2023-04-13T11:48:50.629Z,8.08
2023-04-13T11:58:53.280Z,8.14
2023-04-13T12:09:10.309Z,7.14
2023-04-13T12:29:24.528Z,8.68
2023-04-13T12:39:27.170Z,9.18
2023-04-13T12:49:29.916Z,10.21
2023-04-13T12:59:32.208Z,10.25
2023-04-13T13:09:34.990Z,9.84
2023-04-13T13:19:37.199Z,9.75
2023-04-13T13:29:39.628Z,9.95
2023-04-13T13:39:42.721Z,10.04
2023-04-13T13:49:44.922Z,9.67
2023-04-13T14:00:19.722Z,10.49
2023-04-13T14:10:21.929Z,9.71
2023-04-13T14:20:24.039Z,10.51
2023-04-13T14:30:27.825Z,11.13
2023-04-13T14:40:31.419Z,11.21
2023-04-13T14:50:33.953Z,11.05
2023-04-13T15:00:39.330Z,11.07
2023-04-13T15:10:42.365Z,10.18
2023-04-13T15:20:44.693Z,10.83
2023-04-13T15:30:46.918Z,10.02
2023-04-13T15:40:49.263Z,10.41
2023-04-13T15:50:57.976Z,10.52
2023-04-13T16:01:09.380Z,10.68
2023-04-13T16:11:11.809Z,10.14
2023-04-13T16:21:19.035Z,10.65
2023-04-13T16:31:21.376Z,10.74
2023-04-13T16:41:23.525Z,10.08
2023-04-13T16:51:27.050Z,10.50
2023-04-13T17:01:30.927Z,10.78
2023-04-13T17:11:33.147Z,9.98
2023-04-13T17:21:35.523Z,10.67
2023-04-13T17:31:37.720Z,10.58
2023-04-13T17:41:41.600Z,10.35
2023-04-13T17:51:48.398Z,10.66
2023-04-13T18:01:54.255Z,10.36
2023-04-13T18:11:56.802Z,10.45
2023-04-13T18:21:59.169Z,10.07
2023-04-13T18:32:01.395Z,9.68
2023-04-13T18:42:03.772Z,9.47
2023-04-13T18:52:06.220Z,9.25
2023-04-13T19:02:08.586Z,8.82
2023-04-13T19:12:10.865Z,8.55
2023-04-13T19:22:13.075Z,8.24
2023-04-13T19:32:16.881Z,8.23
2023-04-13T19:42:19.287Z,6.67
2023-04-13T19:52:21.531Z,8.41
2023-04-13T20:02:23.775Z,8.27
2023-04-13T20:12:26.010Z,8.05
2023-04-13T20:22:28.525Z,7.60
2023-04-13T20:32:32.178Z,7.47
2023-04-13T20:42:34.336Z,7.13
2023-04-13T20:52:36.920Z,6.99
2023-04-13T21:02:39.987Z,7.25
2023-04-13T21:12:42.258Z,6.90
2023-04-13T21:22:44.314Z,6.48
2023-04-13T21:32:46.422Z,6.49
2023-04-13T21:42:49.570Z,6.32
2023-04-13T21:52:51.999Z,6.86
2023-04-13T22:02:55.276Z,7.16
2023-04-13T22:12:57.524Z,6.98
2023-04-13T22:22:59.698Z,6.89
2023-04-13T22:33:01.911Z,7.03
2023-04-13T22:43:04.241Z,6.82
2023-04-13T22:53:06.452Z,6.82
2023-04-13T23:03:08.763Z,6.62
2023-04-13T23:13:10.962Z,6.73
2023-04-13T23:23:13.129Z,6.48
2023-04-13T23:33:15.796Z,6.69
2023-04-13T23:43:17.943Z,6.13
2023-04-13T23:53:20.046Z,6.97
